This is the latest recevied weather packets stored in our database for station/object F5SAW-10. If no packets are shown the sender has not sent any weather packets the latest 10 day(s).
| Time | Temp. | Humidity | Pressure | Rain* | Wind** | Luminosity | Snow |
|---|---|---|---|---|---|---|---|
| 1777887979 | 27.78° C | 40% | 977.2 hPa | - | - | - | - |
| 1777887079 | 27.22° C | 40% | 977.3 hPa | - | - | - | - |
| 1777886178 | 27.22° C | 40% | 977.4 hPa | - | - | - | - |
| 1777885278 | 27.22° C | 40% | 977.4 hPa | - | - | - | - |
| 1777884378 | 27.22° C | 39% | 977.4 hPa | - | - | - | - |
| 1777883478 | 27.22° C | 39% | 977.5 hPa | - | - | - | - |
| 1777882578 | 27.22° C | 40% | 977.6 hPa | - | - | - | - |
| 1777881678 | 27.22° C | 39% | 977.8 hPa | - | - | - | - |
| 1777880778 | 27.22° C | 40% | 977.8 hPa | - | - | - | - |
| 1777879878 | 26.67° C | 40% | 977.7 hPa | - | - | - | - |
| 1777878978 | 26.67° C | 40% | 977.8 hPa | - | - | - | - |
| 1777878077 | 26.67° C | 41% | 977.8 hPa | - | - | - | - |
| 1777877177 | 26.67° C | 41% | 977.7 hPa | - | - | - | - |
| 1777876277 | 26.11° C | 43% | 977.7 hPa | - | - | - | - |
| 1777875376 | 25° C | 48% | 977.6 hPa | - | - | - | - |
| 1777874476 | 20° C | 59% | 977.8 hPa | - | - | - | - |
| 1777833981 | 27.78° C | 41% | 976.7 hPa | - | - | - | - |
| 1777833081 | 27.78° C | 41% | 976.7 hPa | - | - | - | - |
| 1777832181 | 27.78° C | 41% | 976.6 hPa | - | - | - | - |
| 1777831281 | 27.78° C | 41% | 976.6 hPa | - | - | - | - |
| 1777830381 | 27.78° C | 41% | 976.3 hPa | - | - | - | - |
| 1777829481 | 27.78° C | 41% | 976.1 hPa | - | - | - | - |
| 1777828581 | 27.78° C | 41% | 976.3 hPa | - | - | - | - |
| 1777827680 | 27.78° C | 41% | 976.5 hPa | - | - | - | - |
| 1777826780 | 27.78° C | 41% | 976.4 hPa | - | - | - | - |
* Rain since midnight (hover to see other rain measurements)
** Current wind speed in m/s (hover to see current wind gust speed)